sensor_id;sensor_type;location;lat;lon;timestamp;P1;durP1;ratioP1;P2;durP2;ratioP2
16975;SDS011;8604;48.148;-1.786;2022-10-31T00:01:22;12.20;;;3.40;;
16975;SDS011;8604;48.148;-1.786;2022-10-31T00:03:54;10.93;;;3.60;;
16975;SDS011;8604;48.148;-1.786;2022-10-31T00:06:35;12.87;;;3.60;;
16975;SDS011;8604;48.148;-1.786;2022-10-31T00:09:43;11.03;;;3.30;;
16975;SDS011;8604;48.148;-1.786;2022-10-31T00:13:10;11.00;;;3.07;;
16975;SDS011;8604;48.148;-1.786;2022-10-31T00:16:15;10.00;;;3.23;;
16975;SDS011;8604;48.148;-1.786;2022-10-31T00:24:07;11.90;;;3.00;;
16975;SDS011;8604;48.148;-1.786;2022-10-31T00:27:27;14.03;;;3.40;;
16975;SDS011;8604;48.148;-1.786;2022-10-31T00:31:08;9.67;;;3.00;;
16975;SDS011;8604;48.148;-1.786;2022-10-31T00:34:27;11.10;;;3.17;;
16975;SDS011;8604;48.148;-1.786;2022-10-31T00:37:55;10.07;;;3.17;;
16975;SDS011;8604;48.148;-1.786;2022-10-31T00:41:40;10.03;;;3.43;;
16975;SDS011;8604;48.148;-1.786;2022-10-31T00:45:16;11.13;;;2.90;;
16975;SDS011;8604;48.148;-1.786;2022-10-31T00:48:33;12.17;;;3.13;;
16975;SDS011;8604;48.148;-1.786;2022-10-31T00:51:36;10.13;;;3.07;;
16975;SDS011;8604;48.148;-1.786;2022-10-31T00:54:39;12.23;;;3.23;;
16975;SDS011;8604;48.148;-1.786;2022-10-31T00:57:55;11.87;;;3.10;;
16975;SDS011;8604;48.148;-1.786;2022-10-31T01:00:54;9.37;;;3.03;;
16975;SDS011;8604;48.148;-1.786;2022-10-31T01:05:03;10.37;;;3.30;;
16975;SDS011;8604;48.148;-1.786;2022-10-31T01:07:51;10.63;;;3.40;;
16975;SDS011;8604;48.148;-1.786;2022-10-31T01:11:10;11.03;;;3.80;;
16975;SDS011;8604;48.148;-1.786;2022-10-31T01:13:55;10.77;;;3.37;;
16975;SDS011;8604;48.148;-1.786;2022-10-31T01:16:27;9.87;;;3.50;;
16975;SDS011;8604;48.148;-1.786;2022-10-31T01:19:09;11.97;;;3.70;;
16975;SDS011;8604;48.148;-1.786;2022-10-31T01:21:50;11.67;;;4.00;;
16975;SDS011;8604;48.148;-1.786;2022-10-31T01:24:55;15.23;;;4.33;;
16975;SDS011;8604;48.148;-1.786;2022-10-31T01:27:46;14.07;;;3.77;;
16975;SDS011;8604;48.148;-1.786;2022-10-31T01:30:32;11.53;;;3.63;;
16975;SDS011;8604;48.148;-1.786;2022-10-31T01:33:37;12.93;;;3.83;;
16975;SDS011;8604;48.148;-1.786;2022-10-31T01:36:42;10.17;;;2.93;;
16975;SDS011;8604;48.148;-1.786;2022-10-31T01:39:28;10.03;;;3.33;;
16975;SDS011;8604;48.148;-1.786;2022-10-31T01:49:11;13.37;;;3.37;;
16975;SDS011;8604;48.148;-1.786;2022-10-31T01:53:29;8.20;;;2.90;;
16975;SDS011;8604;48.148;-1.786;2022-10-31T01:56:29;11.77;;;3.00;;
16975;SDS011;8604;48.148;-1.786;2022-10-31T01:59:21;8.77;;;3.40;;
16975;SDS011;8604;48.148;-1.786;2022-10-31T02:05:45;9.47;;;3.30;;
16975;SDS011;8604;48.148;-1.786;2022-10-31T02:08:16;13.87;;;3.90;;
16975;SDS011;8604;48.148;-1.786;2022-10-31T02:10:49;11.07;;;3.60;;
16975;SDS011;8604;48.148;-1.786;2022-10-31T02:13:22;6.60;;;3.50;;
16975;SDS011;8604;48.148;-1.786;2022-10-31T02:15:58;10.57;;;3.83;;
16975;SDS011;8604;48.148;-1.786;2022-10-31T02:18:37;11.23;;;4.33;;
16975;SDS011;8604;48.148;-1.786;2022-10-31T02:21:17;12.47;;;3.80;;
16975;SDS011;8604;48.148;-1.786;2022-10-31T02:30:20;11.17;;;4.07;;
16975;SDS011;8604;48.148;-1.786;2022-10-31T02:32:55;11.10;;;4.60;;
16975;SDS011;8604;48.148;-1.786;2022-10-31T02:35:46;9.87;;;4.67;;
16975;SDS011;8604;48.148;-1.786;2022-10-31T02:38:23;9.27;;;4.33;;
16975;SDS011;8604;48.148;-1.786;2022-10-31T02:41:11;12.47;;;5.23;;
16975;SDS011;8604;48.148;-1.786;2022-10-31T02:44:28;21.00;;;6.10;;
16975;SDS011;8604;48.148;-1.786;2022-10-31T02:48:09;10.83;;;5.40;;
16975;SDS011;8604;48.148;-1.786;2022-10-31T02:50:57;7.90;;;4.87;;
16975;SDS011;8604;48.148;-1.786;2022-10-31T02:58:11;32.37;;;6.83;;
16975;SDS011;8604;48.148;-1.786;2022-10-31T03:01:51;10.00;;;5.80;;
16975;SDS011;8604;48.148;-1.786;2022-10-31T03:05:34;55.57;;;6.93;;
16975;SDS011;8604;48.148;-1.786;2022-10-31T03:08:11;14.40;;;5.80;;
16975;SDS011;8604;48.148;-1.786;2022-10-31T03:10:47;23.87;;;5.67;;
16975;SDS011;8604;48.148;-1.786;2022-10-31T03:13:23;56.97;;;7.17;;
16975;SDS011;8604;48.148;-1.786;2022-10-31T03:16:10;43.73;;;7.00;;
16975;SDS011;8604;48.148;-1.786;2022-10-31T03:19:45;6.33;;;4.43;;
16975;SDS011;8604;48.148;-1.786;2022-10-31T03:23:31;34.87;;;5.20;;
16975;SDS011;8604;48.148;-1.786;2022-10-31T03:26:54;6.50;;;4.30;;
16975;SDS011;8604;48.148;-1.786;2022-10-31T03:29:33;61.53;;;7.13;;
16975;SDS011;8604;48.148;-1.786;2022-10-31T03:32:36;64.90;;;7.47;;
16975;SDS011;8604;48.148;-1.786;2022-10-31T03:43:46;31.63;;;5.57;;
16975;SDS011;8604;48.148;-1.786;2022-10-31T03:46:37;5.87;;;3.70;;
16975;SDS011;8604;48.148;-1.786;2022-10-31T03:49:07;36.40;;;5.60;;
16975;SDS011;8604;48.148;-1.786;2022-10-31T03:51:36;15.87;;;4.40;;
16975;SDS011;8604;48.148;-1.786;2022-10-31T03:54:12;11.47;;;3.77;;
16975;SDS011;8604;48.148;-1.786;2022-10-31T03:56:53;22.23;;;4.47;;
16975;SDS011;8604;48.148;-1.786;2022-10-31T03:59:32;34.97;;;4.97;;
16975;SDS011;8604;48.148;-1.786;2022-10-31T04:02:05;7.93;;;3.30;;
16975;SDS011;8604;48.148;-1.786;2022-10-31T04:04:39;15.73;;;3.80;;
16975;SDS011;8604;48.148;-1.786;2022-10-31T04:07:13;3.67;;;2.77;;
16975;SDS011;8604;48.148;-1.786;2022-10-31T04:10:22;133.07;;;8.33;;
16975;SDS011;8604;48.148;-1.786;2022-10-31T04:13:00;92.47;;;6.67;;
16975;SDS011;8604;48.148;-1.786;2022-10-31T04:15:59;95.13;;;6.73;;
16975;SDS011;8604;48.148;-1.786;2022-10-31T04:18:32;5.53;;;3.03;;
16975;SDS011;8604;48.148;-1.786;2022-10-31T04:21:16;51.10;;;5.27;;
16975;SDS011;8604;48.148;-1.786;2022-10-31T04:23:47;4.90;;;2.90;;
16975;SDS011;8604;48.148;-1.786;2022-10-31T04:26:23;72.60;;;5.63;;
16975;SDS011;8604;48.148;-1.786;2022-10-31T04:28:52;5.47;;;2.93;;
16975;SDS011;8604;48.148;-1.786;2022-10-31T04:31:31;9.07;;;3.37;;
16975;SDS011;8604;48.148;-1.786;2022-10-31T04:35:17;7.60;;;3.07;;
16975;SDS011;8604;48.148;-1.786;2022-10-31T04:39:06;4.90;;;2.60;;
16975;SDS011;8604;48.148;-1.786;2022-10-31T04:43:03;5.10;;;2.90;;
16975;SDS011;8604;48.148;-1.786;2022-10-31T04:46:17;5.10;;;3.27;;
16975;SDS011;8604;48.148;-1.786;2022-10-31T04:49:38;5.20;;;2.90;;
16975;SDS011;8604;48.148;-1.786;2022-10-31T04:52:17;28.70;;;4.67;;
16975;SDS011;8604;48.148;-1.786;2022-10-31T04:55:35;4.40;;;3.03;;
16975;SDS011;8604;48.148;-1.786;2022-10-31T04:59:14;4.30;;;2.80;;
16975;SDS011;8604;48.148;-1.786;2022-10-31T05:03:15;5.73;;;3.43;;
16975;SDS011;8604;48.148;-1.786;2022-10-31T05:15:15;4.67;;;3.00;;
16975;SDS011;8604;48.148;-1.786;2022-10-31T05:22:43;5.07;;;3.10;;
16975;SDS011;8604;48.148;-1.786;2022-10-31T05:26:04;4.63;;;2.60;;
16975;SDS011;8604;48.148;-1.786;2022-10-31T05:30:18;4.47;;;2.80;;
16975;SDS011;8604;48.148;-1.786;2022-10-31T05:33:58;8.73;;;3.10;;
16975;SDS011;8604;48.148;-1.786;2022-10-31T05:37:57;2.90;;;2.30;;
16975;SDS011;8604;48.148;-1.786;2022-10-31T05:45:06;7.60;;;2.83;;
16975;SDS011;8604;48.148;-1.786;2022-10-31T05:47:57;3.87;;;2.50;;
16975;SDS011;8604;48.148;-1.786;2022-10-31T05:50:47;3.17;;;2.30;;
16975;SDS011;8604;48.148;-1.786;2022-10-31T05:53:16;4.40;;;2.53;;
16975;SDS011;8604;48.148;-1.786;2022-10-31T05:55:51;40.43;;;4.57;;
16975;SDS011;8604;48.148;-1.786;2022-10-31T05:58:24;3.53;;;2.70;;
16975;SDS011;8604;48.148;-1.786;2022-10-31T06:01:03;8.00;;;3.13;;
16975;SDS011;8604;48.148;-1.786;2022-10-31T06:03:33;18.60;;;4.07;;
16975;SDS011;8604;48.148;-1.786;2022-10-31T06:06:05;23.07;;;3.97;;
16975;SDS011;8604;48.148;-1.786;2022-10-31T06:08:36;10.70;;;3.60;;
16975;SDS011;8604;48.148;-1.786;2022-10-31T06:11:14;27.53;;;4.53;;
16975;SDS011;8604;48.148;-1.786;2022-10-31T06:14:03;4.20;;;2.60;;
16975;SDS011;8604;48.148;-1.786;2022-10-31T06:16:45;4.70;;;3.10;;
16975;SDS011;8604;48.148;-1.786;2022-10-31T06:19:35;10.23;;;3.30;;
16975;SDS011;8604;48.148;-1.786;2022-10-31T06:22:04;3.90;;;3.10;;
16975;SDS011;8604;48.148;-1.786;2022-10-31T06:24:33;4.90;;;3.10;;
16975;SDS011;8604;48.148;-1.786;2022-10-31T06:27:37;4.00;;;2.77;;
16975;SDS011;8604;48.148;-1.786;2022-10-31T06:30:12;23.50;;;4.20;;
16975;SDS011;8604;48.148;-1.786;2022-10-31T06:32:41;7.07;;;3.40;;
16975;SDS011;8604;48.148;-1.786;2022-10-31T06:35:11;11.90;;;3.70;;
16975;SDS011;8604;48.148;-1.786;2022-10-31T06:37:41;9.10;;;3.53;;
16975;SDS011;8604;48.148;-1.786;2022-10-31T06:40:26;14.77;;;3.87;;
16975;SDS011;8604;48.148;-1.786;2022-10-31T06:43:22;9.10;;;3.80;;
16975;SDS011;8604;48.148;-1.786;2022-10-31T22:30:46;14.33;;;3.03;;
16975;SDS011;8604;48.148;-1.786;2022-10-31T22:33:15;11.87;;;2.50;;
16975;SDS011;8604;48.148;-1.786;2022-10-31T22:35:43;14.30;;;2.77;;
16975;SDS011;8604;48.148;-1.786;2022-10-31T22:38:12;17.70;;;2.97;;
16975;SDS011;8604;48.148;-1.786;2022-10-31T22:40:40;12.83;;;2.40;;
16975;SDS011;8604;48.148;-1.786;2022-10-31T22:43:08;10.23;;;2.67;;
16975;SDS011;8604;48.148;-1.786;2022-10-31T22:45:37;11.67;;;2.37;;
16975;SDS011;8604;48.148;-1.786;2022-10-31T22:48:07;14.50;;;2.37;;
16975;SDS011;8604;48.148;-1.786;2022-10-31T22:50:35;13.00;;;2.87;;
16975;SDS011;8604;48.148;-1.786;2022-10-31T22:53:03;11.20;;;3.00;;
16975;SDS011;8604;48.148;-1.786;2022-10-31T22:55:33;13.40;;;2.70;;
16975;SDS011;8604;48.148;-1.786;2022-10-31T22:58:03;15.43;;;2.67;;
16975;SDS011;8604;48.148;-1.786;2022-10-31T23:00:32;13.23;;;3.07;;
16975;SDS011;8604;48.148;-1.786;2022-10-31T23:03:01;11.63;;;2.63;;
16975;SDS011;8604;48.148;-1.786;2022-10-31T23:05:31;12.17;;;2.90;;
16975;SDS011;8604;48.148;-1.786;2022-10-31T23:07:59;14.37;;;3.63;;
16975;SDS011;8604;48.148;-1.786;2022-10-31T23:10:30;15.30;;;3.20;;
16975;SDS011;8604;48.148;-1.786;2022-10-31T23:12:59;12.00;;;2.80;;
16975;SDS011;8604;48.148;-1.786;2022-10-31T23:15:45;13.43;;;2.43;;
16975;SDS011;8604;48.148;-1.786;2022-10-31T23:18:14;12.40;;;3.17;;
16975;SDS011;8604;48.148;-1.786;2022-10-31T23:21:04;14.37;;;2.90;;
16975;SDS011;8604;48.148;-1.786;2022-10-31T23:23:35;10.77;;;2.97;;
16975;SDS011;8604;48.148;-1.786;2022-10-31T23:26:04;16.57;;;3.20;;
16975;SDS011;8604;48.148;-1.786;2022-10-31T23:28:50;11.70;;;2.40;;
16975;SDS011;8604;48.148;-1.786;2022-10-31T23:31:18;14.97;;;3.23;;
16975;SDS011;8604;48.148;-1.786;2022-10-31T23:33:47;14.10;;;2.90;;
16975;SDS011;8604;48.148;-1.786;2022-10-31T23:36:16;12.57;;;2.70;;
16975;SDS011;8604;48.148;-1.786;2022-10-31T23:38:45;14.63;;;3.17;;
16975;SDS011;8604;48.148;-1.786;2022-10-31T23:41:16;13.80;;;2.67;;
16975;SDS011;8604;48.148;-1.786;2022-10-31T23:43:44;13.83;;;3.40;;
16975;SDS011;8604;48.148;-1.786;2022-10-31T23:46:14;13.77;;;2.80;;
16975;SDS011;8604;48.148;-1.786;2022-10-31T23:48:42;13.50;;;3.13;;
16975;SDS011;8604;48.148;-1.786;2022-10-31T23:51:13;15.83;;;3.10;;
16975;SDS011;8604;48.148;-1.786;2022-10-31T23:53:44;14.10;;;3.03;;
16975;SDS011;8604;48.148;-1.786;2022-10-31T23:56:12;16.97;;;2.80;;
16975;SDS011;8604;48.148;-1.786;2022-10-31T23:58:41;14.90;;;3.23;;
